Time;durP1;ratioP1;P1;durP2;ratioP2;P2;SDS_P1;SDS_P2;PMS_P1;PMS_P2;Temp;Humidity;BMP_temperature;BMP_pressure;BME280_temperature;BME280_humidity;BME280_pressure;Samples;Min_cycle;Max_cycle;Signal;HPM_P1;HPM_P2
2023/03/27 00:01:00;;;;;;;9.35;2.35;;;2.10;99.90;;;;;;5016514;28;20038;-64
2023/03/27 00:03:28;;;;;;;8.27;2.28;;;2.10;99.90;;;;;;5015323;28;20044;-64
2023/03/27 00:06:02;;;;;;;9.38;2.40;;;2.10;99.90;;;;;;5032266;28;20556;-64
2023/03/27 00:08:30;;;;;;;17.27;3.03;;;2.10;99.90;;;;;;5033206;28;20450;-64
2023/03/27 00:10:56;;;;;;;9.30;2.05;;;2.00;99.90;;;;;;5018003;28;20128;-64
2023/03/27 00:13:21;;;;;;;7.82;2.60;;;2.00;99.90;;;;;;5027812;28;20660;-64
2023/03/27 00:15:49;;;;;;;8.65;2.30;;;2.00;99.90;;;;;;5033421;28;20037;-64
2023/03/27 00:18:15;;;;;;;10.40;2.95;;;2.00;99.90;;;;;;5024675;28;20073;-64
2023/03/27 00:20:41;;;;;;;9.98;2.65;;;1.90;99.90;;;;;;5032018;28;20042;-64
2023/03/27 00:23:07;;;;;;;7.55;2.40;;;1.90;99.90;;;;;;5033276;28;20050;-64
2023/03/27 00:25:32;;;;;;;15.10;2.70;;;1.90;99.90;;;;;;5033438;28;20064;-64
2023/03/27 00:27:58;;;;;;;10.18;2.42;;;1.90;99.90;;;;;;5027617;28;20053;-64
2023/03/27 00:30:25;;;;;;;6.63;2.13;;;1.80;99.90;;;;;;5032395;28;20037;-64
2023/03/27 00:32:54;;;;;;;6.55;1.88;;;1.80;99.90;;;;;;5033139;28;20038;-64
2023/03/27 00:35:21;;;;;;;6.35;2.20;;;1.80;99.90;;;;;;5023836;28;20073;-64
2023/03/27 00:37:47;;;;;;;5.65;2.53;;;1.80;99.90;;;;;;5026523;28;20435;-64
2023/03/27 00:40:16;;;;;;;8.27;2.65;;;1.70;99.90;;;;;;5032908;28;20504;-64
2023/03/27 00:42:43;;;;;;;9.13;2.67;;;1.70;99.90;;;;;;5033052;28;20048;-64
2023/03/27 00:45:29;;;;;;;11.18;3.05;;;1.70;99.90;;;;;;5024981;28;20048;-64
2023/03/27 00:47:59;;;;;;;12.82;2.10;;;1.70;99.90;;;;;;5025764;28;20041;-64
2023/03/27 00:50:30;;;;;;;9.13;2.50;;;1.70;99.90;;;;;;5032686;28;20129;-64
2023/03/27 00:53:05;;;;;;;11.70;2.20;;;1.60;99.90;;;;;;5014451;28;20038;-64
2023/03/27 00:55:35;;;;;;;7.85;2.60;;;1.70;99.90;;;;;;5028403;28;20034;-64
2023/03/27 00:58:05;;;;;;;5.90;2.17;;;1.80;99.90;;;;;;5032194;28;20069;-64
2023/03/27 01:00:32;;;;;;;7.47;2.28;;;1.70;99.90;;;;;;5030710;28;20519;-64
2023/03/27 01:03:00;;;;;;;10.02;2.10;;;1.70;99.90;;;;;;5032446;28;20029;-64
2023/03/27 01:05:26;;;;;;;7.72;2.15;;;1.70;99.90;;;;;;5032652;28;20049;-64
2023/03/27 01:07:52;;;;;;;8.40;2.67;;;1.60;99.90;;;;;;5021620;28;20030;-64
2023/03/27 01:10:18;;;;;;;9.88;2.80;;;1.60;99.90;;;;;;5023654;28;20408;-64
2023/03/27 01:13:24;;;;;;;7.10;1.77;;;1.60;99.90;;;;;;5031861;28;20037;-64
2023/03/27 01:16:25;;;;;;;9.70;2.20;;;1.60;99.90;;;;;;5032104;28;20056;-64
2023/03/27 01:19:03;;;;;;;7.95;2.17;;;1.60;99.90;;;;;;4995763;22;20056;-65
2023/03/27 01:22:11;;;;;;;7.95;2.50;;;1.60;99.90;;;;;;5016354;28;20045;-65
2023/03/27 01:25:20;;;;;;;9.23;2.45;;;1.60;99.90;;;;;;4998354;28;20972;-65
2023/03/27 01:28:09;;;;;;;10.90;2.15;;;1.60;99.90;;;;;;5028681;28;20128;-65
2023/03/27 01:30:40;;;;;;;8.20;2.20;;;1.60;99.90;;;;;;5032125;28;20050;-65
2023/03/27 01:33:26;;;;;;;7.22;2.03;;;1.60;99.90;;;;;;5032141;28;20033;-66
2023/03/27 01:36:17;;;;;;;6.25;2.50;;;1.50;99.90;;;;;;5023532;28;20053;-65
2023/03/27 01:39:04;;;;;;;6.70;2.08;;;1.50;99.90;;;;;;5027271;28;20041;-65
2023/03/27 01:41:51;;;;;;;6.85;2.40;;;1.50;99.90;;;;;;5026354;28;20049;-66
2023/03/27 01:44:26;;;;;;;8.52;2.47;;;1.50;99.90;;;;;;5021427;28;20033;-65
2023/03/27 01:47:02;;;;;;;8.13;2.22;;;1.50;99.90;;;;;;5030555;28;20479;-65
2023/03/27 01:49:38;;;;;;;5.32;2.08;;;1.40;99.90;;;;;;5031840;28;20044;-65
2023/03/27 01:52:13;;;;;;;8.25;1.95;;;1.40;99.90;;;;;;5014000;28;20076;-65
2023/03/27 01:54:42;;;;;;;7.90;2.28;;;1.40;99.90;;;;;;5030109;28;20050;-65
2023/03/27 01:57:26;;;;;;;9.57;2.05;;;1.30;99.90;;;;;;5031452;28;20037;-65
2023/03/27 02:00:09;;;;;;;8.75;2.30;;;1.30;99.90;;;;;;5013354;28;20088;-65
2023/03/27 02:02:36;;;;;;;15.98;2.60;;;1.30;99.90;;;;;;5019469;28;20029;-65
2023/03/27 02:05:25;;;;;;;8.65;2.60;;;1.30;99.90;;;;;;5023461;28;20045;-65
2023/03/27 02:07:58;;;;;;;8.32;2.05;;;1.30;99.90;;;;;;5025930;28;20645;-65
2023/03/27 02:10:32;;;;;;;6.25;1.90;;;1.30;99.90;;;;;;5021963;28;20048;-65
2023/03/27 02:13:06;;;;;;;8.27;2.35;;;1.30;99.90;;;;;;5029855;28;20502;-65
2023/03/27 02:15:36;;;;;;;9.00;2.30;;;1.30;99.90;;;;;;5028797;28;20045;-63
2023/03/27 02:18:08;;;;;;;7.32;2.08;;;1.30;99.90;;;;;;5020515;28;20044;-64
2023/03/27 02:20:37;;;;;;;4.95;1.75;;;1.30;99.90;;;;;;5031510;28;20090;-65
2023/03/27 02:23:02;;;;;;;9.13;2.17;;;1.30;99.90;;;;;;5031692;28;20033;-65
2023/03/27 02:25:31;;;;;;;11.00;2.60;;;1.30;99.90;;;;;;5027057;28;20397;-64
2023/03/27 02:28:18;;;;;;;6.85;2.15;;;1.30;99.90;;;;;;5030585;28;20037;-65
2023/03/27 02:31:05;;;;;;;8.25;2.00;;;1.30;99.90;;;;;;5031280;28;20037;-65
2023/03/27 02:34:08;;;;;;;9.95;1.90;;;1.20;99.90;;;;;;5027249;28;20087;-65
2023/03/27 02:36:53;;;;;;;9.30;2.40;;;1.20;99.90;;;;;;5030670;28;20065;-64
2023/03/27 02:39:25;;;;;;;9.88;2.45;;;1.20;99.90;;;;;;5011416;28;20476;-65
2023/03/27 02:42:05;;;;;;;7.80;1.83;;;1.20;99.90;;;;;;5015011;28;20034;-65
2023/03/27 02:44:51;;;;;;;5.93;2.20;;;1.20;99.90;;;;;;5026598;28;20626;-64
2023/03/27 02:47:47;;;;;;;6.00;2.00;;;1.20;99.90;;;;;;5011432;28;20046;-64
2023/03/27 02:50:18;;;;;;;10.10;2.13;;;1.20;99.90;;;;;;5007688;28;20060;-65
2023/03/27 02:52:54;;;;;;;10.38;2.70;;;1.30;99.90;;;;;;5020556;28;20059;-65
2023/03/27 02:55:28;;;;;;;7.80;2.28;;;1.30;99.90;;;;;;5031064;28;20504;-65
2023/03/27 02:58:01;;;;;;;8.30;2.63;;;1.30;99.90;;;;;;5025334;28;20569;-65
2023/03/27 03:00:31;;;;;;;6.65;2.05;;;1.30;99.90;;;;;;5027336;28;20040;-65
2023/03/27 03:03:11;;;;;;;8.90;2.35;;;1.40;99.90;;;;;;5030691;28;20037;-64
2023/03/27 03:05:37;;;;;;;7.43;2.20;;;1.40;99.90;;;;;;5024857;28;20045;-65
2023/03/27 03:08:04;;;;;;;9.38;3.08;;;1.50;99.90;;;;;;5026787;28;20048;-65
2023/03/27 03:10:30;;;;;;;8.57;2.10;;;1.50;99.90;;;;;;5029813;28;20048;-65
2023/03/27 03:12:55;;;;;;;10.13;2.50;;;1.50;99.90;;;;;;5032206;28;20037;-64
2023/03/27 03:15:21;;;;;;;8.77;2.60;;;1.60;99.90;;;;;;5022253;28;20038;-65
2023/03/27 03:17:47;;;;;;;8.07;2.13;;;1.60;99.90;;;;;;5028781;28;20459;-65
2023/03/27 03:20:13;;;;;;;11.75;1.98;;;1.60;99.90;;;;;;5033134;28;20042;-65
2023/03/27 03:22:40;;;;;;;6.78;2.03;;;1.70;99.90;;;;;;5029673;28;20084;-65
2023/03/27 03:25:06;;;;;;;8.13;2.35;;;1.70;99.90;;;;;;5023128;28;20488;-65
2023/03/27 03:27:33;;;;;;;7.50;2.22;;;1.70;99.90;;;;;;5033915;28;20033;-65
2023/03/27 03:29:59;;;;;;;4.80;1.80;;;1.70;99.90;;;;;;5030557;28;20041;-65
2023/03/27 03:32:26;;;;;;;8.65;2.10;;;1.70;99.90;;;;;;5021251;28;20046;-65
2023/03/27 03:34:52;;;;;;;8.82;2.22;;;1.70;99.90;;;;;;5025037;28;20403;-65
2023/03/27 03:37:17;;;;;;;5.57;2.00;;;1.60;99.90;;;;;;5024728;28;20510;-65
2023/03/27 03:39:43;;;;;;;4.38;2.30;;;1.60;99.90;;;;;;5027112;28;20037;-65
2023/03/27 03:42:08;;;;;;;9.05;1.80;;;1.60;99.90;;;;;;5020922;28;20037;-65
2023/03/27 03:44:35;;;;;;;11.27;1.77;;;1.60;99.90;;;;;;5033868;28;20033;-65
2023/03/27 03:47:02;;;;;;;9.15;1.92;;;1.60;99.90;;;;;;5034213;28;20384;-65
2023/03/27 03:49:27;;;;;;;9.32;2.10;;;1.60;99.90;;;;;;5021286;28;20487;-65
2023/03/27 03:51:53;;;;;;;9.20;2.00;;;1.60;99.90;;;;;;5032084;28;20040;-65
2023/03/27 03:54:18;;;;;;;6.18;1.85;;;1.60;99.90;;;;;;5032266;28;20100;-65
2023/03/27 03:56:44;;;;;;;9.50;2.20;;;1.70;99.90;;;;;;5026392;28;20120;-65
2023/03/27 03:59:10;;;;;;;5.10;2.25;;;1.80;99.90;;;;;;5026561;28;20042;-65
2023/03/27 04:01:36;;;;;;;7.50;2.35;;;1.80;99.90;;;;;;5033314;28;20029;-66
2023/03/27 04:04:02;;;;;;;5.75;2.00;;;1.80;99.90;;;;;;5033974;28;20514;-65
2023/03/27 04:06:29;;;;;;;6.95;1.98;;;1.80;99.90;;;;;;5019511;28;20041;-65
2023/03/27 04:08:55;;;;;;;2.88;1.75;;;1.90;99.90;;;;;;5026116;28;20614;-64
2023/03/27 04:11:21;;;;;;;9.52;2.15;;;1.90;99.90;;;;;;5033459;28;20116;-65
2023/03/27 04:13:49;;;;;;;10.35;2.35;;;1.90;99.90;;;;;;5026918;28;20041;-66
2023/03/27 04:16:15;;;;;;;9.40;2.03;;;1.80;99.90;;;;;;5032916;28;20057;-66
2023/03/27 04:18:41;;;;;;;4.45;2.00;;;1.70;99.90;;;;;;5032852;28;20046;-65
2023/03/27 04:21:13;;;;;;;9.20;2.13;;;1.70;99.90;;;;;;5032576;28;20080;-66
2023/03/27 04:23:43;;;;;;;10.20;2.13;;;1.70;99.90;;;;;;5021283;28;20034;-65
2023/03/27 04:26:10;;;;;;;10.53;3.20;;;1.70;99.90;;;;;;5024491;28;20052;-65
2023/03/27 04:28:37;;;;;;;7.35;2.17;;;1.70;99.90;;;;;;5032545;28;20041;-65
2023/03/27 04:31:06;;;;;;;10.00;1.88;;;1.70;99.90;;;;;;5024293;28;20041;-65
2023/03/27 04:33:33;;;;;;;9.48;2.08;;;1.60;99.90;;;;;;5027529;28;20420;-65
2023/03/27 04:36:00;;;;;;;6.80;2.47;;;1.50;99.90;;;;;;5032056;28;20519;-65
2023/03/27 04:38:27;;;;;;;6.75;2.20;;;1.60;99.90;;;;;;5032742;28;20037;-65
2023/03/27 04:40:53;;;;;;;11.20;2.30;;;1.50;99.90;;;;;;5021466;28;20117;-65
2023/03/27 04:43:19;;;;;;;6.40;2.08;;;1.40;99.90;;;;;;5032327;28;20152;-66
2023/03/27 04:45:47;;;;;;;6.85;2.22;;;1.50;99.90;;;;;;5029798;28;20412;-63
2023/03/27 04:48:14;;;;;;;9.70;2.50;;;1.60;99.90;;;;;;5014493;28;20042;-64
2023/03/27 04:50:43;;;;;;;4.60;2.00;;;1.50;99.90;;;;;;5027881;28;20037;-66
2023/03/27 04:53:09;;;;;;;8.93;1.80;;;1.50;99.90;;;;;;5032783;28;20077;-65
2023/03/27 04:55:36;;;;;;;10.32;2.20;;;1.60;99.90;;;;;;5021551;28;20034;-65
2023/03/27 04:58:03;;;;;;;3.83;1.83;;;1.50;99.90;;;;;;5024454;28;20036;-65
2023/03/27 05:00:29;;;;;;;9.20;2.08;;;1.50;99.90;;;;;;5031138;28;20029;-65
2023/03/27 05:02:55;;;;;;;4.60;2.10;;;1.50;99.90;;;;;;5021804;28;20396;-64
2023/03/27 05:05:21;;;;;;;6.75;2.10;;;1.50;99.90;;;;;;5025753;28;20129;-65
2023/03/27 05:07:48;;;;;;;8.88;2.30;;;1.60;99.90;;;;;;5030259;28;20049;-65
2023/03/27 05:10:16;;;;;;;7.15;2.30;;;1.60;99.90;;;;;;5030947;28;20033;-65
2023/03/27 05:12:43;;;;;;;6.63;1.95;;;1.60;99.90;;;;;;5019782;28;20064;-65
2023/03/27 05:15:09;;;;;;;7.80;2.17;;;1.70;99.90;;;;;;5032277;28;20060;-65
2023/03/27 05:17:42;;;;;;;6.43;2.10;;;1.70;99.90;;;;;;5022971;28;20491;-65
2023/03/27 05:20:13;;;;;;;8.90;2.20;;;1.70;99.90;;;;;;5009010;28;20057;-65
2023/03/27 05:22:39;;;;;;;;;;;1.60;99.90;;;;;;5017060;28;20048;-65
2023/03/27 05:25:05;;;;;;;3.85;1.92;;;1.60;99.90;;;;;;5016199;28;19932;-65
2023/03/27 05:27:31;;;;;;;7.32;1.95;;;1.60;99.90;;;;;;5009747;28;20033;-65
2023/03/27 05:29:57;;;;;;;7.32;2.33;;;1.60;99.90;;;;;;5005593;28;20049;-65
2023/03/27 05:32:22;;;;;;;6.70;2.10;;;1.60;99.90;;;;;;5021703;28;20075;-65
2023/03/27 05:34:49;;;;;;;8.98;2.40;;;1.60;99.90;;;;;;5005442;28;20400;-65
2023/03/27 05:37:16;;;;;;;7.57;1.98;;;1.60;99.90;;;;;;5000288;28;20037;-65
2023/03/27 05:39:45;;;;;;;9.55;2.33;;;1.70;99.90;;;;;;5020177;28;20037;-64
2023/03/27 05:42:10;;;;;;;7.05;1.92;;;1.60;99.90;;;;;;5022936;28;20400;-65
2023/03/27 05:44:36;;;;;;;6.45;2.15;;;1.60;99.90;;;;;;5004578;28;20075;-65
2023/03/27 05:47:01;;;;;;;8.75;2.85;;;1.70;99.90;;;;;;5003788;28;20132;-65
2023/03/27 05:49:27;;;;;;;10.63;2.42;;;1.70;99.90;;;;;;5028367;28;20120;-66
2023/03/27 05:51:53;;;;;;;10.10;2.22;;;1.70;99.90;;;;;;5037235;28;20087;-64
2023/03/27 05:54:18;;;;;;;10.20;2.47;;;1.70;99.90;;;;;;5005967;28;20048;-66
2023/03/27 05:56:44;;;;;;;10.52;2.35;;;1.80;99.90;;;;;;4998134;28;20091;-66
2023/03/27 05:59:09;;;;;;;11.75;2.38;;;1.80;99.90;;;;;;4999429;28;20366;-64
2023/03/27 06:01:35;;;;;;;8.73;2.80;;;1.70;99.90;;;;;;5013601;28;20045;-65
2023/03/27 06:04:03;;;;;;;6.95;2.50;;;1.80;99.90;;;;;;5013590;28;20038;-64
2023/03/27 06:06:28;;;;;;;7.88;2.50;;;1.80;99.90;;;;;;5027132;28;20061;-65
2023/03/27 06:08:55;;;;;;;9.02;2.63;;;1.80;99.90;;;;;;5010284;28;20073;-65
2023/03/27 06:11:21;;;;;;;8.20;2.67;;;1.80;99.90;;;;;;5009445;28;20049;-64
2023/03/27 06:13:46;;;;;;;4.35;2.00;;;1.90;99.90;;;;;;5011480;28;20049;-64
2023/03/27 06:16:13;;;;;;;6.70;2.50;;;1.90;99.90;;;;;;5008527;28;20037;-63
2023/03/27 06:18:39;;;;;;;6.63;2.28;;;1.90;99.90;;;;;;4997532;28;20049;-64
2023/03/27 06:21:05;;;;;;;10.23;2.50;;;2.00;99.90;;;;;;5019218;28;20419;-65
2023/03/27 06:23:31;;;;;;;9.30;2.67;;;2.00;99.90;;;;;;5005773;28;20034;-65
2023/03/27 06:25:57;;;;;;;6.03;2.30;;;2.10;99.90;;;;;;5002648;28;20068;-65
2023/03/27 06:28:23;;;;;;;10.60;2.42;;;2.20;99.90;;;;;;5002785;28;20042;-64
2023/03/27 06:30:49;;;;;;;10.40;2.00;;;2.20;99.90;;;;;;5019680;28;20042;-65
2023/03/27 06:33:14;;;;;;;8.07;1.88;;;2.30;99.90;;;;;;5011013;28;20088;-64
2023/03/27 06:35:42;;;;;;;6.10;2.10;;;2.40;99.90;;;;;;5015964;28;20096;-65
2023/03/27 06:38:08;;;;;;;5.32;2.50;;;2.50;99.90;;;;;;5006280;28;20149;-65
2023/03/27 06:40:34;;;;;;;11.65;1.90;;;2.60;99.90;;;;;;5000640;28;20630;-65
2023/03/27 06:43:06;;;;;;;4.53;1.30;;;2.70;99.90;;;;;;4997948;28;20034;-65
2023/03/27 06:45:42;;;;;;;6.93;1.70;;;2.70;99.90;;;;;;5019165;28;20563;-65
2023/03/27 06:48:09;;;;;;;10.20;2.47;;;2.70;99.90;;;;;;5014350;28;20080;-65
2023/03/27 06:50:35;;;;;;;5.45;1.83;;;2.70;99.90;;;;;;5025856;28;20041;-65
2023/03/27 06:53:01;;;;;;;8.98;2.13;;;2.70;99.90;;;;;;5034193;28;20454;-64
2023/03/27 06:55:28;;;;;;;7.03;2.55;;;2.70;99.90;;;;;;5017834;28;20030;-64
2023/03/27 06:57:56;;;;;;;8.85;2.17;;;2.90;99.90;;;;;;5029820;28;20430;-63
2023/03/27 07:00:25;;;;;;;12.93;2.28;;;3.10;99.90;;;;;;5018363;28;20037;-65
2023/03/27 07:02:57;;;;;;;5.22;1.60;;;3.20;99.90;;;;;;5013887;28;20042;-65
2023/03/27 07:05:25;;;;;;;6.45;1.58;;;3.30;99.90;;;;;;5020228;28;20129;-64
2023/03/27 07:07:52;;;;;;;5.88;1.60;;;3.20;99.90;;;;;;5019780;28;20418;-63
2023/03/27 07:10:19;;;;;;;5.28;1.52;;;3.10;99.90;;;;;;5026940;28;20455;-65
2023/03/27 07:12:45;;;;;;;5.65;1.58;;;3.00;99.90;;;;;;5029185;28;20046;-65
2023/03/27 07:15:11;;;;;;;6.15;1.80;;;3.00;99.90;;;;;;5028435;28;20604;-65
2023/03/27 07:17:37;;;;;;;9.90;1.80;;;3.00;99.90;;;;;;5049685;22;20020;-65
2023/03/27 07:20:05;;;;;;;9.43;2.10;;;3.00;99.90;;;;;;5005113;28;20047;-65
2023/03/27 07:22:30;;;;;;;8.90;2.42;;;3.10;99.90;;;;;;5021412;28;20033;-65
2023/03/27 07:24:56;;;;;;;8.52;2.25;;;3.10;99.90;;;;;;5028971;28;20053;-65
2023/03/27 07:27:24;;;;;;;9.77;2.70;;;3.10;99.90;;;;;;5032692;28;20045;-65
2023/03/27 07:29:49;;;;;;;5.43;2.10;;;3.20;99.90;;;;;;5015605;28;20651;-65
2023/03/27 07:32:16;;;;;;;7.68;2.70;;;3.20;99.90;;;;;;4992070;28;20088;-65
2023/03/27 07:34:42;;;;;;;9.02;2.10;;;3.30;99.90;;;;;;4992019;28;20056;-64
2023/03/27 07:37:07;;;;;;;5.65;1.58;;;3.40;99.90;;;;;;5006248;28;20041;-64
2023/03/27 07:39:33;;;;;;;6.47;1.85;;;3.50;99.90;;;;;;5008003;28;20034;-65
2023/03/27 07:41:58;;;;;;;5.57;1.35;;;3.60;99.90;;;;;;4995685;28;20451;-65
2023/03/27 07:44:24;;;;;;;6.30;1.90;;;3.60;99.90;;;;;;5001880;28;20455;-65
2023/03/27 07:46:51;;;;;;;7.40;2.08;;;3.70;99.90;;;;;;4993698;28;20045;-64
2023/03/27 07:49:17;;;;;;;5.70;2.03;;;3.80;99.90;;;;;;5001495;28;20108;-64
2023/03/27 07:51:44;;;;;;;8.23;1.92;;;3.80;99.90;;;;;;4988959;28;20041;-64
2023/03/27 07:54:12;;;;;;;7.30;2.30;;;4.00;99.90;;;;;;5017443;28;20040;-65
2023/03/27 07:56:38;;;;;;;6.53;2.05;;;4.00;99.90;;;;;;5002050;28;20511;-65
2023/03/27 07:59:04;;;;;;;9.10;2.50;;;4.00;99.90;;;;;;4996556;28;20037;-64
2023/03/27 08:01:29;;;;;;;7.22;1.98;;;4.20;99.90;;;;;;5001789;28;20037;-65
2023/03/27 08:03:56;;;;;;;7.85;2.15;;;4.30;99.90;;;;;;5011825;28;20096;-65
2023/03/27 08:06:22;;;;;;;6.70;1.90;;;4.40;99.90;;;;;;5022995;28;20049;-64
2023/03/27 08:08:49;;;;;;;5.38;1.80;;;4.50;99.90;;;;;;5007872;28;20034;-65
2023/03/27 08:11:15;;;;;;;8.90;2.05;;;4.60;99.90;;;;;;5013303;28;20045;-64
2023/03/27 08:13:41;;;;;;;7.63;1.88;;;4.70;99.90;;;;;;5013752;28;20117;-65
2023/03/27 08:16:13;;;;;;;5.80;1.85;;;4.80;99.90;;;;;;5002541;28;20093;-65
2023/03/27 08:18:39;;;;;;;7.10;1.58;;;4.90;99.90;;;;;;5008395;28;20053;-64
2023/03/27 08:21:07;;;;;;;5.80;1.35;;;5.00;99.90;;;;;;5013578;28;20073;-65
2023/03/27 08:23:33;;;;;;;9.38;1.88;;;5.20;99.90;;;;;;5011349;28;20030;-64
2023/03/27 08:25:59;;;;;;;7.57;1.45;;;5.30;99.90;;;;;;5001811;28;20057;-65
2023/03/27 08:28:43;;;;;;;4.53;1.50;;;5.40;99.90;;;;;;5006930;28;20125;-65
2023/03/27 08:31:11;;;;;;;4.55;1.60;;;5.50;99.90;;;;;;5009680;28;20037;-62
2023/03/27 08:33:38;;;;;;;7.93;1.83;;;5.50;99.90;;;;;;5005139;28;20030;-62
2023/03/27 08:36:04;;;;;;;8.50;2.15;;;5.50;99.90;;;;;;5010079;28;20041;-63
2023/03/27 08:38:32;;;;;;;0.95;0.80;;;5.50;99.90;;;;;;5007732;28;20030;-63
2023/03/27 08:41:02;;;;;;;0.82;0.75;;;5.00;99.90;;;;;;5005155;28;20113;-62
2023/03/27 08:43:35;;;;;;;2.90;1.13;;;4.20;99.90;;;;;;5018551;28;20070;-62
2023/03/27 08:46:09;;;;;;;3.20;1.17;;;3.80;99.90;;;;;;5006697;28;20034;-62
2023/03/27 08:48:45;;;;;;;2.22;1.17;;;3.60;99.90;;;;;;5005818;28;20069;-62
2023/03/27 08:51:37;;;;;;;3.60;1.30;;;3.60;99.90;;;;;;5008100;28;20045;-62
2023/03/27 08:54:24;;;;;;;3.67;1.20;;;3.60;99.90;;;;;;5006784;28;20052;-62
2023/03/27 08:56:50;;;;;;;2.70;1.13;;;3.60;99.90;;;;;;5010258;28;20504;-62
2023/03/27 08:59:23;;;;;;;4.53;1.38;;;3.80;99.90;;;;;;5004475;28;20037;-62
2023/03/27 09:02:16;;;;;;;4.40;1.90;;;4.00;99.90;;;;;;5003300;28;20041;-62
2023/03/27 09:05:02;;;;;;;3.10;1.60;;;4.10;99.90;;;;;;5004732;28;20041;-62
2023/03/27 09:08:04;;;;;;;3.00;1.50;;;4.30;99.90;;;;;;5012734;28;20069;-62
2023/03/27 09:10:51;;;;;;;5.03;1.50;;;4.50;99.90;;;;;;5006887;28;20567;-62
2023/03/27 09:13:25;;;;;;;1.60;1.20;;;4.80;99.90;;;;;;5000964;28;20092;-62
2023/03/27 09:16:09;;;;;;;4.03;1.42;;;5.00;99.90;;;;;;5003374;28;20076;-62
2023/03/27 09:18:38;;;;;;;5.57;1.40;;;5.20;99.90;;;;;;5015089;28;20034;-62
2023/03/27 09:21:16;;;;;;;2.95;1.10;;;5.40;99.90;;;;;;5011772;28;20381;-63
2023/03/27 09:23:45;;;;;;;5.45;1.30;;;5.70;99.90;;;;;;5007170;28;20041;-62
2023/03/27 09:26:21;;;;;;;6.45;1.50;;;5.90;99.90;;;;;;5003255;28;20056;-63
2023/03/27 09:28:54;;;;;;;5.70;1.65;;;6.20;99.90;;;;;;5002564;28;20141;-62
2023/03/27 09:31:31;;;;;;;5.57;1.17;;;6.30;99.90;;;;;;5005099;28;20073;-62
2023/03/27 09:34:04;;;;;;;8.38;1.92;;;6.40;99.90;;;;;;5000853;28;20049;-62
2023/03/27 09:36:30;;;;;;;7.90;1.70;;;6.30;99.90;;;;;;5005258;28;20488;-62
2023/03/27 09:39:04;;;;;;;6.18;1.60;;;6.20;99.90;;;;;;5010207;28;20036;-62
2023/03/27 09:41:50;;;;;;;7.53;1.60;;;5.90;99.90;;;;;;5014033;28;20064;-63
2023/03/27 09:44:25;;;;;;;3.33;1.30;;;5.70;99.90;;;;;;5005025;28;20041;-63
2023/03/27 09:47:03;;;;;;;6.60;1.60;;;4.90;99.90;;;;;;5011123;28;20403;-63
2023/03/27 09:49:28;;;;;;;4.53;1.50;;;4.40;99.90;;;;;;5006481;28;20037;-63
2023/03/27 09:51:58;;;;;;;5.55;1.42;;;4.10;99.90;;;;;;5010558;28;20042;-63
2023/03/27 09:54:27;;;;;;;6.55;1.40;;;4.10;99.90;;;;;;5011446;28;20038;-63
2023/03/27 09:57:00;;;;;;;2.13;1.10;;;4.20;99.90;;;;;;5010980;28;20038;-63
2023/03/27 09:59:31;;;;;;;2.35;1.20;;;4.30;99.90;;;;;;4994222;28;20510;-63
2023/03/27 10:01:59;;;;;;;4.43;1.50;;;4.50;99.90;;;;;;4999582;28;20046;-63
2023/03/27 10:04:28;;;;;;;5.13;1.27;;;4.60;99.90;;;;;;5006726;28;20037;-63
2023/03/27 10:07:07;;;;;;;4.72;1.35;;;4.80;99.90;;;;;;5009739;28;20030;-63
2023/03/27 10:09:37;;;;;;;2.47;1.20;;;5.00;99.90;;;;;;5005256;28;20500;-63
2023/03/27 10:12:06;;;;;;;5.20;1.77;;;5.10;99.90;;;;;;5003836;28;20046;-63
2023/03/27 10:14:46;;;;;;;3.85;1.40;;;5.20;99.90;;;;;;4998770;28;20057;-63
2023/03/27 10:17:28;;;;;;;4.90;1.52;;;5.30;99.90;;;;;;5004095;28;20033;-63
2023/03/27 10:20:16;;;;;;;7.43;1.70;;;5.50;99.90;;;;;;5001188;28;20042;-63
2023/03/27 10:23:03;;;;;;;2.70;1.27;;;5.60;99.90;;;;;;5007774;28;20040;-63
2023/03/27 10:25:33;;;;;;;2.78;1.20;;;6.00;99.90;;;;;;4991213;28;20405;-63
2023/03/27 10:28:33;;;;;;;3.00;1.48;;;6.30;99.90;;;;;;5002442;28;20042;-63
2023/03/27 10:31:07;;;;;;;3.67;1.15;;;6.50;99.90;;;;;;5006245;28;20046;-63
2023/03/27 10:33:39;;;;;;;2.65;1.23;;;6.50;99.90;;;;;;5010494;28;20031;-63
2023/03/27 10:36:07;;;;;;;6.68;1.30;;;6.30;99.90;;;;;;5014853;28;20037;-63
2023/03/27 10:38:36;;;;;;;6.32;1.20;;;6.40;99.90;;;;;;5003609;28;20065;-63
2023/03/27 10:41:10;;;;;;;3.20;1.48;;;6.40;99.90;;;;;;5010029;28;20542;-63
2023/03/27 10:43:42;;;;;;;3.95;1.67;;;6.60;99.90;;;;;;5013535;28;20128;-63
2023/03/27 10:46:17;;;;;;;6.25;1.23;;;6.70;99.90;;;;;;5007600;28;20041;-63
2023/03/27 10:48:55;;;;;;;2.22;1.00;;;6.90;99.90;;;;;;5017309;28;20120;-63
2023/03/27 10:51:41;;;;;;;3.17;1.00;;;7.30;99.90;;;;;;5017939;28;20049;-63
2023/03/27 10:54:33;;;;;;;4.32;1.42;;;7.40;99.90;;;;;;5017919;28;20045;-63
2023/03/27 10:57:09;;;;;;;4.88;0.93;;;7.40;99.90;;;;;;5010111;28;20451;-63
2023/03/27 10:59:43;;;;;;;2.78;0.93;;;7.20;99.90;;;;;;5008080;28;20037;-63
2023/03/27 11:02:24;;;;;;;2.60;0.95;;;7.10;99.90;;;;;;5008697;28;20041;-63
2023/03/27 11:04:57;;;;;;;5.32;1.17;;;7.40;99.90;;;;;;5015936;28;20100;-63
2023/03/27 11:07:32;;;;;;;3.35;1.02;;;7.40;99.90;;;;;;5002666;28;20037;-63
2023/03/27 11:10:29;;;;;;;2.88;1.10;;;7.40;99.90;;;;;;5010314;28;20045;-62
2023/03/27 11:13:19;;;;;;;5.07;1.42;;;7.50;99.90;;;;;;5000836;28;20057;-63
2023/03/27 11:16:22;;;;;;;2.40;1.23;;;7.40;99.90;;;;;;5005552;28;20077;-63
2023/03/27 11:18:55;;;;;;;7.18;1.75;;;7.40;99.90;;;;;;4987552;28;20050;-63
2023/03/27 11:21:30;;;;;;;3.92;1.10;;;7.20;99.90;;;;;;5008799;28;20040;-63
2023/03/27 11:23:58;;;;;;;4.07;1.27;;;7.40;99.90;;;;;;5015012;28;20030;-63
2023/03/27 11:26:34;;;;;;;3.45;1.30;;;7.60;99.90;;;;;;5014948;28;20082;-63
2023/03/27 11:29:13;;;;;;;5.70;1.45;;;7.50;99.90;;;;;;5015433;28;20124;-63
2023/03/27 11:31:45;;;;;;;2.75;1.15;;;7.50;99.90;;;;;;5015884;28;20096;-63
2023/03/27 11:34:10;;;;;;;4.55;1.25;;;7.60;99.90;;;;;;5015077;28;20046;-63
2023/03/27 11:37:03;;;;;;;4.53;1.23;;;7.80;99.90;;;;;;5003939;28;20114;-63
2023/03/27 11:39:40;;;;;;;4.13;1.33;;;7.80;97.00;;;;;;5006468;28;20045;-63
2023/03/27 11:42:31;;;;;;;5.10;1.40;;;8.10;99.90;;;;;;5009261;28;20034;-64
2023/03/27 11:44:57;;;;;;;6.63;1.40;;;8.50;99.90;;;;;;5007402;28;20064;-63
2023/03/27 11:47:51;;;;;;;6.75;1.90;;;8.60;99.90;;;;;;5012544;28;20133;-63
2023/03/27 11:50:45;;;;;;;4.07;1.88;;;8.30;97.90;;;;;;5002836;28;20080;-63
2023/03/27 11:53:33;;;;;;;4.00;1.52;;;8.10;99.90;;;;;;5002161;28;20499;-63
2023/03/27 11:56:34;;;;;;;2.50;1.00;;;8.20;99.90;;;;;;5006791;28;20415;-63
2023/03/27 11:59:18;;;;;;;3.55;1.20;;;8.20;97.60;;;;;;5008464;28;20057;-63
2023/03/27 12:01:56;;;;;;;4.22;1.35;;;8.60;99.90;;;;;;4999214;28;20077;-63
2023/03/27 12:04:51;;;;;;;5.45;1.50;;;8.80;98.50;;;;;;5013579;28;20087;-63
2023/03/27 12:07:41;;;;;;;1.35;0.93;;;9.00;99.90;;;;;;4994044;28;20094;-63
2023/03/27 12:10:37;;;;;;;3.10;1.30;;;8.10;99.90;;;;;;4998793;28;20038;-63
2023/03/27 12:13:36;;;;;;;2.35;0.90;;;7.00;99.90;;;;;;5014897;28;20651;-63
2023/03/27 12:16:20;;;;;;;2.42;1.00;;;6.40;99.90;;;;;;5013480;28;20489;-62
2023/03/27 12:18:48;;;;;;;2.05;1.10;;;6.00;99.90;;;;;;5010810;28;20037;-63
2023/03/27 12:22:00;;;;;;;0.90;0.70;;;6.00;99.90;;;;;;5013134;28;20105;-63
2023/03/27 12:24:39;;;;;;;2.25;0.95;;;6.40;99.90;;;;;;5005813;28;20149;-63
2023/03/27 12:27:13;;;;;;;2.60;0.90;;;6.80;99.90;;;;;;5010998;28;20116;-63
2023/03/27 12:29:46;;;;;;;4.00;1.20;;;7.00;99.90;;;;;;5013039;28;20594;-63
2023/03/27 12:32:47;;;;;;;3.03;0.95;;;7.40;99.90;;;;;;5013202;28;20050;-63
2023/03/27 12:35:17;;;;;;;8.20;1.08;;;7.80;99.90;;;;;;5021309;28;20038;-63
2023/03/27 12:37:55;;;;;;;4.75;1.30;;;8.00;99.90;;;;;;5013407;28;20125;-63
2023/03/27 12:40:26;;;;;;;1.98;0.85;;;8.40;99.90;;;;;;5013162;28;20049;-63
2023/03/27 12:43:01;;;;;;;5.13;1.48;;;8.80;99.90;;;;;;5016719;28;20038;-63
2023/03/27 12:45:27;;;;;;;3.33;1.10;;;8.70;99.90;;;;;;5005016;28;20048;-63
2023/03/27 12:48:08;;;;;;;2.72;0.80;;;7.80;99.90;;;;;;5010159;28;20065;-63
2023/03/27 12:50:43;;;;;;;2.30;1.02;;;6.90;99.90;;;;;;5004237;28;20045;-63
2023/03/27 12:53:27;;;;;;;4.07;0.95;;;6.40;99.90;;;;;;5009454;28;20041;-63
2023/03/27 12:56:23;;;;;;;2.67;0.88;;;6.10;99.90;;;;;;5000049;28;20050;-63
2023/03/27 12:58:51;;;;;;;3.13;1.10;;;6.40;99.90;;;;;;5011333;28;20041;-63
2023/03/27 13:01:49;;;;;;;0.98;0.65;;;6.80;99.90;;;;;;5010230;28;20077;-63
2023/03/27 13:04:27;;;;;;;4.45;1.25;;;7.10;99.90;;;;;;5006452;28;20087;-63
2023/03/27 13:07:15;;;;;;;3.35;1.10;;;7.30;99.90;;;;;;4989167;28;20145;-63
2023/03/27 13:10:11;;;;;;;5.35;1.48;;;7.60;99.90;;;;;;5010375;28;20112;-63
2023/03/27 13:12:58;;;;;;;7.13;1.30;;;8.00;99.90;;;;;;5012186;28;20042;-63
2023/03/27 13:15:47;;;;;;;4.35;1.13;;;8.10;99.90;;;;;;5006415;28;20046;-63
2023/03/27 13:18:46;;;;;;;5.60;0.93;;;8.20;99.90;;;;;;5008232;28;20389;-63
2023/03/27 13:21:19;;;;;;;2.45;0.73;;;8.30;99.90;;;;;;4992877;28;20045;-63
2023/03/27 13:24:18;;;;;;;3.03;0.90;;;8.10;99.90;;;;;;5001485;28;20046;-62
2023/03/27 13:27:02;;;;;;;2.83;1.02;;;8.00;99.00;;;;;;5014012;28;20052;-63